createdAt,value
2018-02-06T00:00:51.556Z,100
2018-02-06T00:01:53.975Z,100
2018-02-06T00:02:56.401Z,100
2018-02-06T00:03:58.821Z,100
2018-02-06T00:05:01.230Z,100
2018-02-06T00:06:03.655Z,100
2018-02-06T00:07:06.084Z,100
2018-02-06T00:08:09.099Z,100
2018-02-06T00:09:11.517Z,100
2018-02-06T00:10:13.932Z,100
2018-02-06T00:11:16.356Z,100
2018-02-06T00:12:18.776Z,100
2018-02-06T00:13:21.195Z,100
2018-02-06T00:14:23.602Z,100
2018-02-06T00:15:26.033Z,100
2018-02-06T00:16:28.455Z,100
2018-02-06T00:17:30.878Z,100
2018-02-06T00:18:33.341Z,100
2018-02-06T00:19:35.715Z,100
2018-02-06T00:20:38.136Z,100
2018-02-06T00:21:40.564Z,100
2018-02-06T00:22:42.989Z,100
2018-02-06T00:23:45.415Z,100
2018-02-06T00:24:47.835Z,100
2018-02-06T00:25:50.246Z,100
2018-02-06T00:26:52.962Z,100
2018-02-06T00:27:55.375Z,100
2018-02-06T00:28:57.796Z,100
2018-02-06T00:30:00.210Z,100
2018-02-06T00:31:02.912Z,100
2018-02-06T00:32:05.336Z,100
2018-02-06T00:33:08.107Z,100
2018-02-06T00:34:10.768Z,100
2018-02-06T00:35:13.185Z,100
2018-02-06T00:36:15.882Z,100
2018-02-06T00:37:18.300Z,100
2018-02-06T00:38:20.728Z,100
2018-02-06T00:39:23.140Z,100
2018-02-06T00:40:25.553Z,100
2018-02-06T00:41:27.984Z,100
2018-02-06T00:42:30.391Z,100
2018-02-06T00:43:32.867Z,100
2018-02-06T00:44:35.232Z,100
2018-02-06T00:45:37.649Z,100
2018-02-06T00:46:40.356Z,100
2018-02-06T00:47:43.388Z,100
2018-02-06T00:48:46.089Z,100
2018-02-06T00:49:48.507Z,100
2018-02-06T00:50:51.234Z,100
2018-02-06T00:51:53.659Z,100
2018-02-06T00:52:56.076Z,100
2018-02-06T00:53:58.496Z,100
2018-02-06T00:55:00.907Z,100
2018-02-06T00:56:03.326Z,100
2018-02-06T00:57:06.019Z,100
2018-02-06T00:58:08.441Z,100
2018-02-06T00:59:10.856Z,100
2018-02-06T01:00:13.280Z,100
2018-02-06T01:01:15.709Z,100
2018-02-06T01:02:18.129Z,100
2018-02-06T01:03:20.831Z,100
2018-02-06T01:04:23.257Z,100
2018-02-06T01:05:25.666Z,100
2018-02-06T01:06:28.092Z,100
2018-02-06T01:07:30.512Z,100
2018-02-06T01:08:32.924Z,100
2018-02-06T01:09:35.348Z,100
2018-02-06T01:10:37.776Z,100
2018-02-06T01:11:40.193Z,100
2018-02-06T01:12:42.617Z,100
2018-02-06T01:13:45.039Z,100
2018-02-06T01:14:47.459Z,100
2018-02-06T01:15:49.883Z,100
2018-02-06T01:16:52.301Z,100
2018-02-06T01:17:54.719Z,100
2018-02-06T01:18:57.148Z,100
2018-02-06T01:19:59.564Z,100
2018-02-06T01:21:01.982Z,100
2018-02-06T01:22:04.398Z,100
2018-02-06T01:23:06.820Z,100
2018-02-06T01:24:09.243Z,100
2018-02-06T01:25:11.663Z,100
2018-02-06T01:26:14.651Z,100
2018-02-06T01:27:17.064Z,100
2018-02-06T01:28:19.489Z,100
2018-02-06T01:29:21.915Z,100
2018-02-06T01:30:24.329Z,100
2018-02-06T01:31:26.759Z,100
2018-02-06T01:32:29.180Z,100
2018-02-06T01:33:31.602Z,100
2018-02-06T01:34:34.301Z,100
2018-02-06T01:35:36.721Z,100
2018-02-06T01:36:39.426Z,100
2018-02-06T01:37:41.843Z,100
2018-02-06T01:38:44.259Z,100
2018-02-06T01:39:46.664Z,100
2018-02-06T01:40:49.088Z,100
2018-02-06T01:41:51.501Z,100
2018-02-06T01:42:53.921Z,100
2018-02-06T01:43:56.627Z,100
2018-02-06T01:44:59.052Z,100
2018-02-06T01:46:01.472Z,100
2018-02-06T01:47:03.902Z,100
2018-02-06T01:48:06.314Z,100
2018-02-06T01:49:08.735Z,100
2018-02-06T01:50:11.154Z,100
2018-02-06T01:51:13.580Z,100
2018-02-06T01:52:16.579Z,100
2018-02-06T01:53:18.996Z,100
2018-02-06T01:54:21.430Z,100
2018-02-06T01:55:23.841Z,100
2018-02-06T01:56:26.262Z,100
2018-02-06T01:57:28.983Z,100
2018-02-06T01:58:31.396Z,100
2018-02-06T01:59:34.101Z,100
2018-02-06T02:00:36.526Z,100
2018-02-06T02:01:38.936Z,100
2018-02-06T02:02:41.362Z,100
2018-02-06T02:03:44.068Z,100
2018-02-06T02:04:46.488Z,100
2018-02-06T02:05:49.201Z,100
2018-02-06T02:06:51.616Z,100
2018-02-06T02:07:54.028Z,100
2018-02-06T02:08:56.445Z,100
2018-02-06T02:09:59.153Z,100
2018-02-06T02:11:01.580Z,100
2018-02-06T02:12:04.287Z,100
2018-02-06T02:13:06.692Z,100
2018-02-06T02:14:09.112Z,100
2018-02-06T02:15:11.545Z,100
2018-02-06T02:16:13.964Z,100
2018-02-06T02:17:16.380Z,100
2018-02-06T02:18:18.808Z,100
2018-02-06T02:19:21.225Z,100
2018-02-06T02:20:23.623Z,100
2018-02-06T02:21:26.043Z,100
2018-02-06T02:22:28.467Z,100
2018-02-06T02:23:31.174Z,100
2018-02-06T02:24:34.180Z,100
2018-02-06T02:25:36.598Z,100
2018-02-06T02:26:39.021Z,100
2018-02-06T02:27:41.448Z,100
2018-02-06T02:28:43.877Z,100
2018-02-06T02:29:46.278Z,100
2018-02-06T02:30:48.699Z,100
2018-02-06T02:31:51.116Z,100
2018-02-06T02:32:53.527Z,100
2018-02-06T02:33:55.951Z,100
2018-02-06T02:34:58.372Z,100
2018-02-06T02:36:00.784Z,100
2018-02-06T02:37:03.204Z,100
2018-02-06T02:38:05.610Z,100
2018-02-06T02:39:08.025Z,100
2018-02-06T02:40:10.451Z,100
2018-02-06T02:41:12.866Z,100
2018-02-06T04:38:49.266Z,100
2018-02-06T04:39:51.674Z,100
2018-02-06T04:40:54.101Z,100
2018-02-06T04:41:56.512Z,100
2018-02-06T04:42:58.928Z,100
2018-02-06T04:44:01.356Z,100
2018-02-06T04:45:03.765Z,100
2018-02-06T04:46:06.184Z,100
2018-02-06T04:47:08.604Z,100
2018-02-06T04:48:11.012Z,100
2018-02-06T04:49:13.431Z,100
2018-02-06T04:50:15.847Z,100
2018-02-06T04:51:18.251Z,100
2018-02-06T04:52:20.669Z,100
2018-02-06T04:53:23.089Z,100
2018-02-06T04:54:25.500Z,100
2018-02-06T04:55:27.924Z,100
2018-02-06T04:56:30.335Z,100
2018-02-06T04:57:32.739Z,100
2018-02-06T04:58:35.165Z,100
2018-02-06T04:59:37.582Z,100
2018-02-06T05:00:39.993Z,100
2018-02-06T05:01:42.418Z,100
2018-02-06T05:02:44.834Z,100
2018-02-06T05:03:47.251Z,100
2018-02-06T05:04:49.963Z,100
2018-02-06T05:05:52.659Z,100
2018-02-06T05:06:55.074Z,100
2018-02-06T05:07:57.781Z,100
2018-02-06T05:09:00.186Z,100
2018-02-06T05:10:02.610Z,100
2018-02-06T05:11:05.334Z,100
2018-02-06T05:12:07.753Z,100
2018-02-06T05:13:10.178Z,100
2018-02-06T05:14:12.878Z,100
2018-02-06T05:15:15.583Z,100
2018-02-06T05:16:17.996Z,100
2018-02-06T05:17:20.412Z,100
2018-02-06T05:18:22.821Z,100
2018-02-06T05:19:25.237Z,100
2018-02-06T05:20:27.651Z,100
2018-02-06T05:21:30.073Z,100
2018-02-06T05:22:32.491Z,100
2018-02-06T05:23:34.912Z,100
2018-02-06T05:24:37.328Z,100
2018-02-06T05:25:39.761Z,100
2018-02-06T05:26:42.511Z,100
2018-02-06T05:27:44.921Z,100
2018-02-06T05:28:47.338Z,100
2018-02-06T05:29:49.750Z,100
2018-02-06T05:30:52.160Z,100
2018-02-06T05:31:54.587Z,100
2018-02-06T05:32:56.993Z,100
2018-02-06T05:33:59.687Z,100
2018-02-06T05:35:02.391Z,100
2018-02-06T05:36:04.803Z,100
2018-02-06T05:37:07.214Z,100
2018-02-06T05:38:09.632Z,100
2018-02-06T05:39:12.039Z,100
2018-02-06T05:40:14.472Z,100
2018-02-06T05:41:16.892Z,100
2018-02-06T05:42:19.585Z,100
2018-02-06T05:43:22.292Z,100
2018-02-06T05:44:24.994Z,100
2018-02-06T05:45:27.416Z,100
2018-02-06T05:46:30.134Z,100
2018-02-06T05:47:32.556Z,100
2018-02-06T05:48:34.973Z,100
2018-02-06T05:49:37.657Z,100
2018-02-06T05:50:40.356Z,100
2018-02-06T05:51:42.783Z,100
2018-02-06T05:52:45.201Z,100
2018-02-06T05:53:47.612Z,100
2018-02-06T05:54:50.037Z,100
2018-02-06T05:55:52.722Z,100
2018-02-06T05:56:55.147Z,100
2018-02-06T05:57:57.845Z,100
2018-02-06T05:59:00.252Z,100
2018-02-06T06:00:02.678Z,100
2018-02-06T06:01:05.093Z,100
2018-02-06T06:02:07.807Z,100
2018-02-06T06:03:10.224Z,100
2018-02-06T06:04:12.631Z,100
2018-02-06T06:05:15.042Z,100
2018-02-06T06:06:17.469Z,100
2018-02-06T06:07:19.882Z,100
2018-02-06T06:08:22.297Z,100
2018-02-06T06:09:24.721Z,100
2018-02-06T06:10:27.471Z,100
2018-02-06T06:11:29.910Z,100
2018-02-06T06:12:32.317Z,100
2018-02-06T06:13:34.718Z,100
2018-02-06T06:14:37.128Z,100
2018-02-06T06:15:39.562Z,100
2018-02-06T06:16:41.975Z,100
2018-02-06T06:17:44.383Z,100
2018-02-06T06:18:46.799Z,100
2018-02-06T06:19:49.221Z,100
2018-02-06T06:20:51.634Z,100
2018-02-06T06:21:54.057Z,100
2018-02-06T06:22:56.489Z,100
2018-02-06T06:23:58.877Z,100
2018-02-06T06:25:01.584Z,100
2018-02-06T06:26:03.993Z,100
2018-02-06T06:27:06.406Z,100
2018-02-06T06:28:08.835Z,100
2018-02-06T06:29:11.251Z,100
2018-02-06T06:30:13.964Z,100
2018-02-06T06:31:16.374Z,100
2018-02-06T06:32:18.786Z,100
2018-02-06T06:33:21.207Z,100
2018-02-06T06:34:23.619Z,100
2018-02-06T06:35:26.029Z,100
2018-02-06T06:36:28.450Z,100
2018-02-06T06:37:30.848Z,100
2018-02-06T06:38:33.270Z,100
2018-02-06T06:39:35.692Z,100
2018-02-06T06:40:38.102Z,100
2018-02-06T06:41:40.520Z,100
2018-02-06T06:42:42.938Z,100
2018-02-06T06:43:45.347Z,100
2018-02-06T06:44:47.767Z,100
2018-02-06T06:45:50.189Z,100
2018-02-06T06:46:52.616Z,100
2018-02-06T06:47:55.035Z,100
2018-02-06T06:48:57.446Z,100
2018-02-06T06:49:59.885Z,100
2018-02-06T06:51:02.594Z,100
2018-02-06T06:52:05.016Z,100
2018-02-06T06:53:07.718Z,100
2018-02-06T06:54:10.130Z,100
2018-02-06T06:55:12.548Z,100
2018-02-06T06:56:14.966Z,100
2018-02-06T06:57:17.384Z,100
2018-02-06T06:58:19.798Z,100
2018-02-06T06:59:22.215Z,100
2018-02-06T07:00:24.627Z,100
2018-02-06T07:01:27.060Z,100
2018-02-06T07:02:29.490Z,100
2018-02-06T07:03:31.881Z,100
2018-02-06T07:04:34.306Z,100
2018-02-06T07:05:36.723Z,100
2018-02-06T07:06:39.434Z,100
2018-02-06T07:07:41.853Z,100
2018-02-06T07:08:44.265Z,100
2018-02-06T07:09:46.684Z,100
2018-02-06T07:10:49.121Z,100
2018-02-06T07:11:51.525Z,100
2018-02-06T07:12:53.943Z,100
2018-02-06T07:13:56.372Z,100
2018-02-06T07:14:58.787Z,100
2018-02-06T07:16:01.214Z,100
2018-02-06T07:17:03.629Z,100
2018-02-06T07:18:06.038Z,100
2018-02-06T07:19:08.446Z,100
2018-02-06T07:20:11.159Z,100
2018-02-06T07:21:13.842Z,100
2018-02-06T07:22:16.275Z,100
2018-02-06T07:23:18.683Z,100
2018-02-06T07:24:21.392Z,100
2018-02-06T07:25:23.802Z,100
2018-02-06T07:26:26.513Z,100
2018-02-06T07:27:28.926Z,100
2018-02-06T07:28:31.647Z,100
2018-02-06T07:29:34.064Z,100
2018-02-06T07:30:36.774Z,100
2018-02-06T07:31:39.194Z,100
2018-02-06T07:32:41.618Z,100
2018-02-06T07:33:44.036Z,100
2018-02-06T07:34:46.463Z,100
2018-02-06T07:35:48.870Z,100
2018-02-06T07:36:51.287Z,100
2018-02-06T07:37:53.691Z,100
2018-02-06T07:38:56.419Z,100
2018-02-06T07:39:58.832Z,100
2018-02-06T07:41:01.247Z,100
2018-02-06T07:42:03.666Z,100
2018-02-06T07:43:06.087Z,100
2018-02-06T07:44:08.500Z,100
2018-02-06T07:45:10.919Z,100
2018-02-06T07:46:13.327Z,100
2018-02-06T07:47:16.032Z,100
2018-02-06T07:48:18.456Z,100
2018-02-06T07:49:20.965Z,100
2018-02-06T07:50:23.447Z,100
2018-02-06T07:51:25.925Z,100
2018-02-06T07:52:28.372Z,100
2018-02-06T07:53:30.810Z,100
2018-02-06T07:54:33.227Z,100
2018-02-06T07:55:35.633Z,100
2018-02-06T07:56:38.051Z,100
2018-02-06T07:57:40.473Z,100
2018-02-06T07:58:42.889Z,100
2018-02-06T07:59:45.318Z,100
2018-02-06T08:00:47.719Z,100
2018-02-06T08:01:50.146Z,100
2018-02-06T08:02:52.566Z,100
2018-02-06T08:03:54.981Z,100
2018-02-06T08:04:57.398Z,100
2018-02-06T08:05:59.816Z,100
2018-02-06T08:07:02.534Z,100
2018-02-06T08:08:04.954Z,100
2018-02-06T08:09:07.664Z,100
2018-02-06T08:10:10.076Z,100
2018-02-06T08:11:12.496Z,100
2018-02-06T08:12:14.918Z,100
2018-02-06T08:13:17.336Z,100
2018-02-06T08:14:19.752Z,100
2018-02-06T08:15:22.172Z,100
2018-02-06T08:16:24.584Z,100
2018-02-06T08:17:27.005Z,100
2018-02-06T08:18:29.423Z,100
2018-02-06T08:19:31.840Z,100
2018-02-06T08:20:34.264Z,100
2018-02-06T08:21:36.696Z,100
2018-02-06T08:22:39.118Z,100
2018-02-06T08:23:41.538Z,100
2018-02-06T08:24:43.951Z,100
2018-02-06T08:25:46.373Z,100
2018-02-06T08:26:48.782Z,100
2018-02-06T08:27:51.204Z,100
2018-02-06T08:28:53.616Z,100
2018-02-06T08:29:56.036Z,100
2018-02-06T08:30:58.459Z,100
2018-02-06T08:32:00.885Z,100
2018-02-06T08:33:03.314Z,100
2018-02-06T08:34:05.742Z,100
2018-02-06T08:35:08.149Z,100
2018-02-06T08:36:10.576Z,100
2018-02-06T08:37:12.995Z,100
2018-02-06T08:38:15.407Z,100
2018-02-06T08:39:17.832Z,100
2018-02-06T08:40:20.251Z,100
2018-02-06T08:41:22.664Z,100
2018-02-06T08:42:25.079Z,100
2018-02-06T08:43:27.508Z,100
2018-02-06T08:44:29.920Z,100
2018-02-06T08:45:32.337Z,100
2018-02-06T08:46:34.765Z,100
2018-02-06T08:47:37.186Z,100
2018-02-06T08:48:39.605Z,100
2018-02-06T08:49:42.027Z,100
2018-02-06T08:50:44.438Z,100
2018-02-06T08:51:46.859Z,100
2018-02-06T08:52:49.583Z,100
2018-02-06T08:53:51.993Z,100
2018-02-06T08:54:54.412Z,100
2018-02-06T08:55:56.828Z,100
2018-02-06T08:56:59.254Z,100
2018-02-06T08:58:01.689Z,100
2018-02-06T08:59:04.109Z,100
2018-02-06T09:00:06.797Z,100
2018-02-06T09:01:09.521Z,100
2018-02-06T09:02:11.940Z,100
2018-02-06T09:03:14.644Z,100
2018-02-06T09:04:17.060Z,100
2018-02-06T09:05:19.481Z,100
2018-02-06T09:06:21.906Z,100
2018-02-06T09:07:24.339Z,100
2018-02-06T09:08:26.755Z,100
2018-02-06T09:09:29.180Z,100
2018-02-06T09:10:31.597Z,100
2018-02-06T09:11:34.027Z,100
2018-02-06T09:12:36.439Z,100
2018-02-06T09:13:38.855Z,100
2018-02-06T09:14:41.565Z,100
2018-02-06T09:15:43.981Z,100
2018-02-06T09:16:46.397Z,100
2018-02-06T09:17:48.828Z,100
2018-02-06T09:18:51.251Z,100
2018-02-06T09:19:53.675Z,100
2018-02-06T09:20:56.097Z,100
2018-02-06T09:21:58.512Z,100
2018-02-06T09:23:00.935Z,100
2018-02-06T09:24:03.661Z,100
2018-02-06T09:25:06.068Z,100
2018-02-06T09:26:08.490Z,100
2018-02-06T09:27:10.917Z,100
2018-02-06T09:28:13.329Z,100
2018-02-06T09:29:15.754Z,100
2018-02-06T09:30:18.176Z,100
2018-02-06T09:31:20.889Z,100
2018-02-06T09:32:23.309Z,100
2018-02-06T09:33:25.743Z,100
2018-02-06T09:34:28.159Z,100
2018-02-06T09:35:30.595Z,100
2018-02-06T09:36:33.014Z,100
2018-02-06T09:37:35.734Z,100
2018-02-06T09:38:38.163Z,100
2018-02-06T09:39:40.581Z,100
2018-02-06T09:40:43.011Z,100
2018-02-06T09:41:45.424Z,100
2018-02-06T09:42:48.153Z,100
2018-02-06T09:43:50.576Z,100
2018-02-06T09:44:52.995Z,100
2018-02-06T09:45:55.426Z,100
2018-02-06T09:46:57.856Z,100
2018-02-06T09:48:00.276Z,100
2018-02-06T09:49:02.717Z,100
2018-02-06T09:50:05.125Z,100
2018-02-06T09:51:07.851Z,100
2018-02-06T09:52:10.278Z,100
2018-02-06T09:53:12.740Z,100
2018-02-06T09:54:15.134Z,100
2018-02-06T09:55:17.558Z,100
2018-02-06T09:56:19.979Z,100
2018-02-06T09:57:22.697Z,100
2018-02-06T09:58:25.124Z,100
2018-02-06T09:59:27.530Z,100
2018-02-06T10:00:29.970Z,100
2018-02-06T10:01:32.679Z,100
2018-02-06T10:02:35.149Z,100
2018-02-06T10:03:37.539Z,100
2018-02-06T10:04:39.962Z,100
2018-02-06T10:05:42.386Z,100
2018-02-06T10:06:44.823Z,100
2018-02-06T10:07:47.236Z,100
2018-02-06T10:08:49.662Z,100
2018-02-06T10:09:52.091Z,100
2018-02-06T10:10:54.526Z,100
2018-02-06T10:11:56.953Z,100
2018-02-06T10:12:59.390Z,100
2018-02-06T10:14:01.811Z,100
2018-02-06T10:15:04.251Z,98
2018-02-06T10:16:06.671Z,97
2018-02-06T10:17:09.112Z,98
2018-02-06T10:18:11.538Z,98
2018-02-06T10:19:13.958Z,99
2018-02-06T10:20:16.370Z,96
2018-02-06T10:21:18.798Z,97
2018-02-06T10:22:21.210Z,95
2018-02-06T10:23:23.645Z,96
2018-02-06T10:24:26.064Z,94
2018-02-06T10:25:28.477Z,94
2018-02-06T10:26:30.901Z,93
2018-02-06T10:27:33.594Z,92
2018-02-06T10:28:36.049Z,94
2018-02-06T10:29:38.436Z,92
2018-02-06T10:30:40.854Z,92
2018-02-06T10:31:43.277Z,93
2018-02-06T10:32:45.714Z,91
2018-02-06T10:33:48.121Z,90
2018-02-06T10:34:50.547Z,91
2018-02-06T10:35:52.962Z,89
2018-02-06T10:36:55.380Z,87
2018-02-06T10:37:58.092Z,88
2018-02-06T10:39:00.522Z,87
2018-02-06T10:40:03.217Z,88
2018-02-06T10:41:05.655Z,88
2018-02-06T10:42:08.360Z,90
2018-02-06T10:43:10.788Z,89
2018-02-06T10:44:13.212Z,88
2018-02-06T10:45:15.635Z,89
2018-02-06T10:46:18.375Z,89
2018-02-06T10:47:21.064Z,90
2018-02-06T10:48:23.485Z,90
2018-02-06T10:49:25.908Z,90
2018-02-06T10:50:28.323Z,88
2018-02-06T10:51:31.038Z,89
2018-02-06T10:52:33.464Z,88
2018-02-06T10:53:35.885Z,85
2018-02-06T10:54:38.317Z,80
2018-02-06T10:55:40.725Z,77
2018-02-06T10:56:43.152Z,76
2018-02-06T10:57:45.585Z,78
2018-02-06T10:58:48.000Z,78
2018-02-06T10:59:50.422Z,79
2018-02-06T11:00:52.847Z,80
2018-02-06T11:01:55.274Z,80
2018-02-06T11:02:57.691Z,78
2018-02-06T11:04:00.116Z,76
2018-02-06T11:05:02.526Z,77
2018-02-06T11:06:05.244Z,77
2018-02-06T11:07:07.689Z,77
2018-02-06T11:08:10.091Z,77
2018-02-06T11:09:12.514Z,76
2018-02-06T11:10:14.938Z,76
2018-02-06T11:11:17.372Z,75
2018-02-06T11:12:19.792Z,76
2018-02-06T11:13:22.200Z,76
2018-02-06T11:14:24.623Z,77
2018-02-06T11:15:27.330Z,75
2018-02-06T11:16:29.753Z,76
2018-02-06T11:17:32.176Z,77
2018-02-06T11:18:34.884Z,75
2018-02-06T11:19:37.305Z,74
2018-02-06T11:20:39.737Z,73
2018-02-06T11:21:42.161Z,74
2018-02-06T11:22:44.585Z,74
2018-02-06T11:23:47.003Z,75
2018-02-06T11:24:49.430Z,75
2018-02-06T11:25:51.850Z,74
2018-02-06T11:26:54.563Z,75
2018-02-06T11:27:56.981Z,74
2018-02-06T11:28:59.408Z,73
2018-02-06T11:30:02.122Z,73
2018-02-06T11:31:05.129Z,70
2018-02-06T11:32:07.833Z,72
2018-02-06T11:33:10.265Z,71
2018-02-06T11:34:12.685Z,70
2018-02-06T11:35:15.103Z,68
2018-02-06T11:36:17.536Z,68
2018-02-06T11:37:19.952Z,70
2018-02-06T11:38:22.376Z,69
2018-02-06T11:39:24.806Z,68
2018-02-06T11:40:27.510Z,69
2018-02-06T11:41:29.937Z,68
2018-02-06T11:42:32.354Z,71
2018-02-06T11:43:34.772Z,71
2018-02-06T11:44:37.250Z,69
2018-02-06T11:45:39.613Z,71
2018-02-06T11:46:42.040Z,72
2018-02-06T11:47:44.462Z,71
2018-02-06T11:48:46.894Z,71
2018-02-06T11:49:49.321Z,71
2018-02-06T11:50:51.748Z,69
2018-02-06T11:51:54.473Z,69
2018-02-06T11:52:56.892Z,67
2018-02-06T11:53:59.318Z,67
2018-02-06T11:55:01.739Z,66
2018-02-06T11:56:04.151Z,65
2018-02-06T11:57:06.847Z,67
2018-02-06T11:58:09.274Z,66
2018-02-06T11:59:11.984Z,66
2018-02-06T12:00:14.401Z,65
2018-02-06T12:01:16.827Z,63
2018-02-06T12:02:19.532Z,64
2018-02-06T12:03:21.966Z,63
2018-02-06T12:04:24.388Z,63
2018-02-06T12:05:26.803Z,62
2018-02-06T12:06:29.222Z,61
2018-02-06T12:07:31.650Z,61
2018-02-06T12:08:34.074Z,60
2018-02-06T12:09:36.490Z,61
2018-02-06T12:10:38.917Z,59
2018-02-06T12:11:41.339Z,59
2018-02-06T12:12:43.757Z,59
2018-02-06T12:13:46.466Z,60
2018-02-06T12:14:48.897Z,59
2018-02-06T12:15:51.608Z,59
2018-02-06T12:16:54.351Z,57
2018-02-06T12:17:56.734Z,59
2018-02-06T12:18:59.152Z,58
2018-02-06T12:20:01.580Z,59
2018-02-06T12:21:03.996Z,58
2018-02-06T12:22:06.413Z,58
2018-02-06T12:23:08.830Z,58
2018-02-06T12:24:11.252Z,59
2018-02-06T12:25:13.674Z,57
2018-02-06T12:26:16.090Z,57
2018-02-06T12:27:18.514Z,55
2018-02-06T12:28:20.939Z,57
2018-02-06T12:29:23.373Z,56
2018-02-06T12:30:25.800Z,56
2018-02-06T12:31:28.213Z,56
2018-02-06T12:32:30.644Z,57
2018-02-06T12:33:33.071Z,56
2018-02-06T12:34:35.490Z,55
2018-02-06T12:35:37.908Z,55
2018-02-06T12:36:40.608Z,56
2018-02-06T12:37:43.026Z,56
2018-02-06T12:38:45.749Z,57
2018-02-06T12:39:48.168Z,56
2018-02-06T12:40:50.579Z,55
2018-02-06T12:41:53.002Z,55
2018-02-06T12:42:55.431Z,54
2018-02-06T12:43:57.854Z,54
2018-02-06T12:45:00.288Z,53
2018-02-06T12:46:02.717Z,54
2018-02-06T12:47:05.133Z,54
2018-02-06T12:48:07.566Z,54
2018-02-06T12:49:09.980Z,54
2018-02-06T12:50:12.397Z,55
2018-02-06T12:51:14.829Z,54
2018-02-06T12:52:17.251Z,55
2018-02-06T12:53:19.666Z,55
2018-02-06T12:54:22.094Z,54
2018-02-06T12:55:24.503Z,55
2018-02-06T12:56:26.930Z,54
2018-02-06T12:57:29.356Z,54
2018-02-06T12:58:32.340Z,54
2018-02-06T12:59:35.340Z,53
2018-02-06T13:00:37.759Z,52
2018-02-06T13:01:40.168Z,53
2018-02-06T13:02:42.603Z,54
2018-02-06T13:03:45.306Z,53
2018-02-06T13:04:48.016Z,52
2018-02-06T13:05:50.432Z,52
2018-02-06T13:06:52.864Z,53
2018-02-06T13:07:55.868Z,54
2018-02-06T13:08:58.314Z,53
2018-02-06T13:10:00.730Z,55
2018-02-06T13:11:03.437Z,53
2018-02-06T13:12:05.851Z,54
2018-02-06T13:13:08.277Z,55
2018-02-06T13:14:10.699Z,54
2018-02-06T13:15:13.119Z,53
2018-02-06T13:16:15.554Z,54
2018-02-06T13:17:17.960Z,54
2018-02-06T13:18:20.668Z,52
2018-02-06T13:19:23.098Z,54
2018-02-06T13:20:25.514Z,55
2018-02-06T13:21:27.934Z,55
2018-02-06T13:22:30.644Z,57
2018-02-06T13:23:33.345Z,56
2018-02-06T13:24:35.763Z,56
2018-02-06T13:25:38.183Z,56
2018-02-06T13:26:40.595Z,56
2018-02-06T13:27:43.023Z,55
2018-02-06T13:28:45.445Z,55
2018-02-06T13:29:47.874Z,56
2018-02-06T13:30:50.300Z,55
2018-02-06T13:31:52.993Z,56
2018-02-06T13:32:55.724Z,56
2018-02-06T13:33:58.140Z,55
2018-02-06T13:35:00.548Z,57
2018-02-06T13:36:02.973Z,56
2018-02-06T13:37:05.386Z,58
2018-02-06T13:38:08.381Z,58
2018-02-06T13:39:11.077Z,56
2018-02-06T13:40:13.494Z,55
2018-02-06T13:41:15.925Z,54
2018-02-06T13:42:18.348Z,53
2018-02-06T13:43:20.758Z,53
2018-02-06T13:44:23.190Z,53
2018-02-06T13:45:25.900Z,54
2018-02-06T13:46:28.611Z,53
2018-02-06T13:47:31.031Z,53
2018-02-06T13:48:33.736Z,53
2018-02-06T13:49:36.156Z,54
2018-02-06T13:50:38.594Z,54
2018-02-06T13:51:41.007Z,55
2018-02-06T13:52:43.433Z,59
2018-02-06T13:53:45.851Z,58
2018-02-06T13:54:48.262Z,55
2018-02-06T13:55:50.689Z,55
2018-02-06T13:56:53.108Z,55
2018-02-06T13:57:55.540Z,55
2018-02-06T13:58:57.959Z,55
2018-02-06T14:00:00.391Z,56
2018-02-06T14:01:02.823Z,57
2018-02-06T14:02:05.266Z,57
2018-02-06T14:03:07.979Z,56
2018-02-06T14:04:10.403Z,55
2018-02-06T14:05:12.851Z,55
2018-02-06T14:06:15.851Z,56
2018-02-06T14:07:18.288Z,57
2018-02-06T14:08:20.715Z,56
2018-02-06T14:09:23.145Z,57
2018-02-06T14:10:25.583Z,57
2018-02-06T14:11:27.999Z,58
2018-02-06T14:12:30.434Z,58
2018-02-06T14:13:32.863Z,58
2018-02-06T14:14:35.277Z,58
2018-02-06T14:15:37.727Z,58
2018-02-06T14:16:40.141Z,57
2018-02-06T14:17:42.566Z,58
2018-02-06T14:18:45.012Z,58
2018-02-06T14:19:47.434Z,58
2018-02-06T14:20:49.865Z,58
2018-02-06T14:21:52.295Z,60
2018-02-06T14:22:54.719Z,59
2018-02-06T14:23:57.151Z,60
2018-02-06T14:24:59.603Z,60
2018-02-06T14:26:01.987Z,60
2018-02-06T14:27:04.420Z,59
2018-02-06T14:28:06.862Z,59
2018-02-06T14:29:09.283Z,60
2018-02-06T14:30:11.707Z,61
2018-02-06T14:31:14.127Z,60
2018-02-06T14:32:16.549Z,61
2018-02-06T14:33:18.981Z,60
2018-02-06T14:34:21.405Z,61
2018-02-06T14:35:23.814Z,60
2018-02-06T14:36:26.242Z,62
2018-02-06T14:37:28.673Z,61
2018-02-06T14:38:31.099Z,61
2018-02-06T14:39:33.530Z,61
2018-02-06T14:40:35.950Z,62
2018-02-06T14:41:38.394Z,63
2018-02-06T14:42:41.094Z,63
2018-02-06T14:43:43.524Z,62
2018-02-06T14:44:46.245Z,63
2018-02-06T14:45:48.961Z,64
2018-02-06T14:46:51.381Z,65
2018-02-06T14:47:53.806Z,63
2018-02-06T14:48:56.226Z,63
2018-02-06T14:49:58.664Z,64
2018-02-06T14:51:01.093Z,63
2018-02-06T14:52:03.799Z,63
2018-02-06T14:53:06.228Z,64
2018-02-06T14:54:08.649Z,63
2018-02-06T14:55:11.073Z,63
2018-02-06T14:56:13.504Z,65
2018-02-06T14:57:15.922Z,65
2018-02-06T14:58:18.349Z,65
2018-02-06T14:59:20.791Z,66
2018-02-06T15:00:23.201Z,65
2018-02-06T15:01:25.626Z,64
2018-02-06T15:02:28.044Z,64
2018-02-06T15:03:30.465Z,64
2018-02-06T15:04:32.900Z,64
2018-02-06T15:05:35.333Z,64
2018-02-06T15:06:37.742Z,63
2018-02-06T15:07:40.178Z,63
2018-02-06T15:08:42.602Z,64
2018-02-06T15:09:45.027Z,65
2018-02-06T15:10:47.733Z,65
2018-02-06T15:11:50.158Z,64
2018-02-06T15:12:52.596Z,64
2018-02-06T15:13:55.028Z,64
2018-02-06T15:14:57.441Z,65
2018-02-06T15:15:59.877Z,65
2018-02-06T15:17:02.309Z,66
2018-02-06T15:18:04.726Z,66
2018-02-06T15:19:07.439Z,65
2018-02-06T15:20:09.866Z,66
2018-02-06T15:21:12.284Z,66
2018-02-06T15:22:14.707Z,67
2018-02-06T15:23:17.120Z,67
2018-02-06T15:24:19.551Z,67
2018-02-06T15:25:21.985Z,67
2018-02-06T15:26:24.405Z,66
2018-02-06T15:27:26.823Z,67
2018-02-06T15:28:29.242Z,68
2018-02-06T15:29:31.660Z,68
2018-02-06T15:30:34.091Z,67
2018-02-06T15:31:36.514Z,68
2018-02-06T15:32:38.917Z,68
2018-02-06T15:33:41.344Z,68
2018-02-06T15:34:43.773Z,68
2018-02-06T15:35:46.196Z,68
2018-02-06T15:36:48.616Z,68
2018-02-06T15:37:51.057Z,68
2018-02-06T15:38:53.479Z,69
2018-02-06T15:39:55.881Z,69
2018-02-06T15:40:58.303Z,69
2018-02-06T15:42:01.010Z,70
2018-02-06T15:43:03.434Z,70
2018-02-06T15:44:05.856Z,71
2018-02-06T15:45:08.563Z,70
2018-02-06T15:46:10.983Z,70
2018-02-06T15:47:13.698Z,71
2018-02-06T15:48:16.118Z,71
2018-02-06T15:49:18.538Z,71
2018-02-06T15:50:20.953Z,72
2018-02-06T15:51:23.384Z,71
2018-02-06T15:52:25.804Z,73
2018-02-06T15:53:28.232Z,72
2018-02-06T15:54:30.651Z,72
2018-02-06T15:55:33.074Z,73
2018-02-06T15:56:35.492Z,73
2018-02-06T15:57:37.917Z,74
2018-02-06T15:58:40.331Z,74
2018-02-06T15:59:42.760Z,74
2018-02-06T16:00:45.174Z,74
2018-02-06T16:01:47.588Z,74
2018-02-06T16:02:50.013Z,75
2018-02-06T16:03:52.710Z,75
2018-02-06T16:04:55.131Z,75
2018-02-06T16:05:57.573Z,75
2018-02-06T16:07:00.008Z,76
2018-02-06T16:08:02.427Z,76
2018-02-06T16:09:04.841Z,76
2018-02-06T16:10:07.265Z,76
2018-02-06T16:11:09.672Z,77
2018-02-06T16:12:12.094Z,77
2018-02-06T16:13:14.821Z,77
2018-02-06T16:14:17.241Z,77
2018-02-06T16:15:19.656Z,78
2018-02-06T16:16:22.077Z,78
2018-02-06T16:17:24.787Z,78
2018-02-06T16:18:27.208Z,78
2018-02-06T16:19:29.632Z,79
2018-02-06T16:20:32.330Z,80
2018-02-06T16:21:34.766Z,80
2018-02-06T16:22:37.172Z,79
2018-02-06T16:23:39.881Z,79
2018-02-06T16:24:42.302Z,80
2018-02-06T16:25:45.014Z,80
2018-02-06T16:26:47.431Z,80
2018-02-06T16:27:49.859Z,81
2018-02-06T16:28:52.279Z,81
2018-02-06T16:29:55.001Z,81